GMAD

Al Massira Airport

Agadir, Morocco
METAR GMAD 161430Z 23006KT 160V280 8000 BKN016 20/13 Q1017 NOSIG
Observed Flight Rules
Dec-16 @ 14:30 UTC (13 minutes ago) Marginal Visual Flight Rules
Wind Visibility Clouds
230° at 6 knots 7,998 meters
  • Broken at 1,600' AGL
Temperatures Readings
Current 20°C / 68°F
Dewpoint 13°C / 55°F
Humidity 64%
Altimeter 30.03" Hg
Pressure 1017 hPa
Elevation 74
METAR GMAD 161430Z 23006KT 160V280 8000 BKN016 20/13 Q1017 NOSIG
Observed Flight Rules
Dec-16 @ 14:30 UTC
(13 minutes ago)
MVFR
Wind Visibility
230° at 6 knots 7,998 meters
Clouds
  • Broken at 1,600' AGL
Temperature Dewpoint
20°C / 68°F 13°C / 55°F
Humidity Altimeter Pressure
64% 30.03" Hg 1017 hPa